Davilla, TX (76523)

2:16 PM CST on February 10, 2016 (GMT -0600)
Bryant Station | | Change Station
CLOSE
Current Station
Personal Weather Station
Location: Buckholts, TX
Elevation: 443 ft
Nearby Weather Stations

Elev 443 ft 30.86 °N, 97.20 °W | Updated 37 seconds ago

Clear
Clear
69.4 °F
Feels Like 69.4 °F
N
5.6
Wind Variable Wind from SW
Gusts 7.4 mph

Today
High -- | Low -- °F
--% Chance of Precip.
Yesterday
High -- | Low -- °F
Precip. -- in
Pressure 30.27 in
Visibility 10.0 miles
Clouds Clear
Dew Point 29 °F
Humidity 22%
Rainfall 0.00 in
Snow Depth Not available.
7:14 AM 6:12 PM
Waxing Crescent, 7% visible
METAR KT35 101955Z AUTO 22011G18KT 10SM CLR 20/02 A3027 RMK AO2 T02030017
Pressure 30.27 in
Visibility 10.0 miles
Clouds Clear
Dew Point 29 °F
Humidity 22%
Rainfall 0.00 in
Snow Depth Not available.
7:14 AM 6:12 PM
Waxing Crescent, 7% visible
METAR KT35 101955Z AUTO 22011G18KT 10SM CLR 20/02 A3027 RMK AO2 T02030017

10-Day Weather Forecast

Almanac

Astronomy

Feb. 10, 2016 Rise Set
Actual Time
Civil Twilight
Nautical Twilight
Astronomical Twilight
Moon
Length of Visible Light
Length of Day
Tomorrow will be .
, % of the Moon is Illuminated

Today's Extremes

State Highs State Lows

Community

WunderPhotos

Upload Photos

1,891,933 photos uploaded!

WunderBlog® & News

Nearby

Air Quality

  Air Quality AQ Index Pollutant
Not available.

Snow Depth

Station Depth Elevation

Earthquake Activity

City Distance Mag. Time & Date
Minimum magnitude displayed is 2.5.

Coastal Water Temperatures

Place Temperature

Stations

Nearby Weather Stations

Station Location Temp. Windchill Dew Point Humidity Wind Precip. Elev Updated Type
                   

Watches & Warnings

There are currently no watches in effect.